sensor_id;sensor_type;location;lat;lon;timestamp;pressure;altitude;pressure_sealevel;temperature;humidity
51460;BME280;37534;39.772;2.718;2023-04-01T00:02:07;101216.41;;;15.73;88.22
51460;BME280;37534;39.772;2.718;2023-04-01T00:04:32;101231.50;;;15.65;88.90
51460;BME280;37534;39.772;2.718;2023-04-01T00:06:58;101234.22;;;15.62;90.28
51460;BME280;37534;39.772;2.718;2023-04-01T00:09:25;101221.09;;;15.65;90.88
51460;BME280;37534;39.772;2.718;2023-04-01T00:11:51;101218.28;;;15.48;92.09
51460;BME280;37534;39.772;2.718;2023-04-01T00:14:17;101229.38;;;15.53;93.13
51460;BME280;37534;39.772;2.718;2023-04-01T00:16:42;101229.59;;;15.47;92.82
51460;BME280;37534;39.772;2.718;2023-04-01T00:19:08;101224.59;;;15.42;91.92
51460;BME280;37534;39.772;2.718;2023-04-01T00:21:34;101222.34;;;15.31;93.08
51460;BME280;37534;39.772;2.718;2023-04-01T00:24:00;101214.84;;;15.24;94.71
51460;BME280;37534;39.772;2.718;2023-04-01T00:26:25;101224.41;;;15.23;94.98
51460;BME280;37534;39.772;2.718;2023-04-01T00:28:51;101209.16;;;15.14;95.45
51460;BME280;37534;39.772;2.718;2023-04-01T00:31:17;101211.22;;;15.28;96.19
51460;BME280;37534;39.772;2.718;2023-04-01T00:33:43;101204.00;;;15.36;96.00
51460;BME280;37534;39.772;2.718;2023-04-01T00:36:13;101208.72;;;15.26;96.00
51460;BME280;37534;39.772;2.718;2023-04-01T00:38:39;101211.72;;;15.15;97.71
51460;BME280;37534;39.772;2.718;2023-04-01T00:41:07;101203.28;;;15.09;98.74
51460;BME280;37534;39.772;2.718;2023-04-01T00:43:33;101200.00;;;15.04;99.59
51460;BME280;37534;39.772;2.718;2023-04-01T00:45:59;101202.59;;;15.04;100.00
51460;BME280;37534;39.772;2.718;2023-04-01T00:48:29;101202.38;;;15.10;100.00
51460;BME280;37534;39.772;2.718;2023-04-01T00:53:41;101214.03;;;15.23;100.00
51460;BME280;37534;39.772;2.718;2023-04-01T00:56:11;101219.09;;;15.26;100.00
51460;BME280;37534;39.772;2.718;2023-04-01T00:58:43;101221.13;;;15.18;100.00
51460;BME280;37534;39.772;2.718;2023-04-01T01:01:09;101222.31;;;15.09;100.00
51460;BME280;37534;39.772;2.718;2023-04-01T01:03:35;101230.84;;;15.36;100.00
51460;BME280;37534;39.772;2.718;2023-04-01T01:06:35;101234.72;;;15.26;100.00
51460;BME280;37534;39.772;2.718;2023-04-01T01:09:11;101245.41;;;15.17;100.00
51460;BME280;37534;39.772;2.718;2023-04-01T01:11:48;101239.56;;;15.12;100.00
51460;BME280;37534;39.772;2.718;2023-04-01T01:22:57;101247.34;;;15.35;97.94
51460;BME280;37534;39.772;2.718;2023-04-01T01:25:57;101252.31;;;15.18;99.05
51460;BME280;37534;39.772;2.718;2023-04-01T01:28:22;101262.97;;;15.12;98.47
51460;BME280;37534;39.772;2.718;2023-04-01T01:36:31;101282.94;;;15.10;100.00
51460;BME280;37534;39.772;2.718;2023-04-01T01:39:01;101303.31;;;14.97;100.00
51460;BME280;37534;39.772;2.718;2023-04-01T01:41:29;101306.56;;;15.04;100.00
51460;BME280;37534;39.772;2.718;2023-04-01T01:43:56;101307.63;;;14.98;100.00
51460;BME280;37534;39.772;2.718;2023-04-01T01:46:26;101309.09;;;15.05;100.00
51460;BME280;37534;39.772;2.718;2023-04-01T01:48:54;101320.75;;;15.18;100.00
51460;BME280;37534;39.772;2.718;2023-04-01T01:51:21;101348.88;;;15.07;100.00
51460;BME280;37534;39.772;2.718;2023-04-01T01:53:47;101331.88;;;15.22;100.00
51460;BME280;37534;39.772;2.718;2023-04-01T01:56:13;101329.72;;;15.10;100.00
51460;BME280;37534;39.772;2.718;2023-04-01T01:58:47;101345.06;;;14.92;100.00
51460;BME280;37534;39.772;2.718;2023-04-01T02:01:18;101350.91;;;14.97;100.00
51460;BME280;37534;39.772;2.718;2023-04-01T02:03:46;101344.75;;;15.01;100.00
51460;BME280;37534;39.772;2.718;2023-04-01T02:06:15;101334.13;;;15.08;100.00
51460;BME280;37534;39.772;2.718;2023-04-01T02:11:16;101331.25;;;14.90;100.00
51460;BME280;37534;39.772;2.718;2023-04-01T02:13:56;101316.91;;;14.80;100.00
51460;BME280;37534;39.772;2.718;2023-04-01T02:16:31;101325.97;;;14.93;100.00
51460;BME280;37534;39.772;2.718;2023-04-01T02:18:58;101336.56;;;14.87;100.00
51460;BME280;37534;39.772;2.718;2023-04-01T02:21:29;101341.78;;;14.87;100.00
51460;BME280;37534;39.772;2.718;2023-04-01T02:23:58;101343.53;;;14.85;100.00
51460;BME280;37534;39.772;2.718;2023-04-01T02:26:25;101337.59;;;14.81;100.00
51460;BME280;37534;39.772;2.718;2023-04-01T02:28:53;101346.09;;;14.87;100.00
51460;BME280;37534;39.772;2.718;2023-04-01T02:31:20;101344.56;;;14.81;100.00
51460;BME280;37534;39.772;2.718;2023-04-01T02:33:46;101349.69;;;14.82;100.00
51460;BME280;37534;39.772;2.718;2023-04-01T02:36:13;101331.03;;;14.71;100.00
51460;BME280;37534;39.772;2.718;2023-04-01T02:38:41;101336.25;;;14.71;100.00
51460;BME280;37534;39.772;2.718;2023-04-01T02:41:07;101334.59;;;14.94;100.00
51460;BME280;37534;39.772;2.718;2023-04-01T02:43:33;101333.56;;;15.48;96.69
51460;BME280;37534;39.772;2.718;2023-04-01T02:45:58;101330.78;;;15.53;96.50
51460;BME280;37534;39.772;2.718;2023-04-01T02:48:24;101327.66;;;15.43;97.38
51460;BME280;37534;39.772;2.718;2023-04-01T02:50:50;101310.53;;;15.37;97.77
51460;BME280;37534;39.772;2.718;2023-04-01T02:53:16;101318.22;;;15.64;95.15
51460;BME280;37534;39.772;2.718;2023-04-01T02:55:41;101326.16;;;15.85;93.58
51460;BME280;37534;39.772;2.718;2023-04-01T02:58:07;101326.66;;;15.94;91.59
51460;BME280;37534;39.772;2.718;2023-04-01T03:00:32;101326.94;;;15.87;91.86
51460;BME280;37534;39.772;2.718;2023-04-01T03:02:58;101326.22;;;15.83;91.22
51460;BME280;37534;39.772;2.718;2023-04-01T03:05:24;101336.56;;;15.85;91.91
51460;BME280;37534;39.772;2.718;2023-04-01T03:07:49;101338.50;;;15.80;91.62
51460;BME280;37534;39.772;2.718;2023-04-01T03:10:15;101336.78;;;15.78;91.88
51460;BME280;37534;39.772;2.718;2023-04-01T03:12:41;101343.81;;;15.76;92.28
51460;BME280;37534;39.772;2.718;2023-04-01T03:15:06;101345.03;;;15.66;93.19
51460;BME280;37534;39.772;2.718;2023-04-01T03:17:34;101330.56;;;15.59;93.33
51460;BME280;37534;39.772;2.718;2023-04-01T03:20:00;101320.16;;;15.59;94.34
51460;BME280;37534;39.772;2.718;2023-04-01T03:22:25;101323.53;;;15.61;94.78
51460;BME280;37534;39.772;2.718;2023-04-01T03:24:51;101329.19;;;15.49;95.22
51460;BME280;37534;39.772;2.718;2023-04-01T03:27:17;101319.13;;;15.39;96.82
51460;BME280;37534;39.772;2.718;2023-04-01T03:29:42;101327.84;;;15.38;97.81
51460;BME280;37534;39.772;2.718;2023-04-01T03:32:08;101325.09;;;15.18;99.47
51460;BME280;37534;39.772;2.718;2023-04-01T03:34:33;101323.72;;;15.08;100.00
51460;BME280;37534;39.772;2.718;2023-04-01T03:36:59;101330.25;;;14.94;100.00
51460;BME280;37534;39.772;2.718;2023-04-01T03:39:25;101342.38;;;14.94;100.00
51460;BME280;37534;39.772;2.718;2023-04-01T03:41:51;101340.06;;;14.86;100.00
51460;BME280;37534;39.772;2.718;2023-04-01T03:44:17;101340.28;;;14.80;100.00
51460;BME280;37534;39.772;2.718;2023-04-01T03:46:42;101337.25;;;14.92;100.00
51460;BME280;37534;39.772;2.718;2023-04-01T03:49:09;101340.94;;;15.12;98.49
51460;BME280;37534;39.772;2.718;2023-04-01T03:51:42;101344.72;;;15.27;97.36
51460;BME280;37534;39.772;2.718;2023-04-01T03:54:09;101334.38;;;15.25;96.36
51460;BME280;37534;39.772;2.718;2023-04-01T03:56:35;101345.63;;;15.26;97.00
51460;BME280;37534;39.772;2.718;2023-04-01T03:59:03;101361.41;;;15.21;97.85
51460;BME280;37534;39.772;2.718;2023-04-01T04:01:28;101349.72;;;15.08;98.62
51460;BME280;37534;39.772;2.718;2023-04-01T04:03:54;101358.44;;;15.07;99.98
51460;BME280;37534;39.772;2.718;2023-04-01T04:06:20;101357.13;;;14.93;100.00
51460;BME280;37534;39.772;2.718;2023-04-01T04:08:46;101362.56;;;14.87;100.00
51460;BME280;37534;39.772;2.718;2023-04-01T04:11:11;101353.03;;;14.86;100.00
51460;BME280;37534;39.772;2.718;2023-04-01T04:13:37;101354.75;;;14.87;100.00
51460;BME280;37534;39.772;2.718;2023-04-01T04:16:03;101363.53;;;14.83;100.00
51460;BME280;37534;39.772;2.718;2023-04-01T04:18:29;101363.63;;;15.07;97.06
51460;BME280;37534;39.772;2.718;2023-04-01T04:20:55;101366.88;;;14.87;99.00
51460;BME280;37534;39.772;2.718;2023-04-01T04:23:21;101379.91;;;14.85;99.62
51460;BME280;37534;39.772;2.718;2023-04-01T04:26:08;101367.09;;;14.80;98.85
51460;BME280;37534;39.772;2.718;2023-04-01T04:28:34;101377.59;;;15.02;99.49
51460;BME280;37534;39.772;2.718;2023-04-01T04:31:01;101394.25;;;15.22;94.82
51460;BME280;37534;39.772;2.718;2023-04-01T04:33:27;101395.00;;;15.00;98.43
51460;BME280;37534;39.772;2.718;2023-04-01T04:35:55;101389.22;;;14.92;98.65
51460;BME280;37534;39.772;2.718;2023-04-01T04:38:21;101396.91;;;14.95;99.60
51460;BME280;37534;39.772;2.718;2023-04-01T04:40:47;101396.91;;;14.95;99.16
51460;BME280;37534;39.772;2.718;2023-04-01T04:43:14;101394.47;;;14.91;100.00
51460;BME280;37534;39.772;2.718;2023-04-01T04:45:41;101387.13;;;14.77;100.00
51460;BME280;37534;39.772;2.718;2023-04-01T04:48:14;101395.75;;;14.77;100.00
51460;BME280;37534;39.772;2.718;2023-04-01T04:50:44;101407.91;;;14.77;100.00
51460;BME280;37534;39.772;2.718;2023-04-01T04:53:14;101400.59;;;14.61;100.00
51460;BME280;37534;39.772;2.718;2023-04-01T04:55:45;101399.03;;;14.56;100.00
51460;BME280;37534;39.772;2.718;2023-04-01T04:58:11;101403.47;;;14.52;100.00
51460;BME280;37534;39.772;2.718;2023-04-01T05:00:36;101410.44;;;14.50;100.00
51460;BME280;37534;39.772;2.718;2023-04-01T05:03:02;101409.13;;;14.37;100.00
51460;BME280;37534;39.772;2.718;2023-04-01T05:05:27;101402.38;;;14.31;100.00
51460;BME280;37534;39.772;2.718;2023-04-01T05:07:53;101411.72;;;14.37;100.00
51460;BME280;37534;39.772;2.718;2023-04-01T05:10:18;101415.06;;;14.40;100.00
51460;BME280;37534;39.772;2.718;2023-04-01T05:12:46;101416.31;;;14.29;100.00
51460;BME280;37534;39.772;2.718;2023-04-01T05:15:11;101421.72;;;14.49;100.00
51460;BME280;37534;39.772;2.718;2023-04-01T05:17:37;101429.72;;;14.43;100.00
51460;BME280;37534;39.772;2.718;2023-04-01T05:20:03;101434.81;;;14.46;100.00
51460;BME280;37534;39.772;2.718;2023-04-01T05:22:29;101428.09;;;14.39;100.00
51460;BME280;37534;39.772;2.718;2023-04-01T05:24:55;101447.53;;;14.25;100.00
51460;BME280;37534;39.772;2.718;2023-04-01T05:27:20;101457.84;;;14.29;100.00
51460;BME280;37534;39.772;2.718;2023-04-01T05:29:46;101451.44;;;14.39;100.00
51460;BME280;37534;39.772;2.718;2023-04-01T05:32:12;101455.41;;;14.52;100.00
51460;BME280;37534;39.772;2.718;2023-04-01T05:34:37;101466.94;;;14.72;100.00
51460;BME280;37534;39.772;2.718;2023-04-01T05:37:03;101463.84;;;14.60;100.00
51460;BME280;37534;39.772;2.718;2023-04-01T05:39:28;101477.72;;;14.59;100.00
51460;BME280;37534;39.772;2.718;2023-04-01T05:41:54;101476.50;;;14.71;100.00
51460;BME280;37534;39.772;2.718;2023-04-01T05:44:20;101487.53;;;14.78;100.00
51460;BME280;37534;39.772;2.718;2023-04-01T05:46:45;101471.09;;;14.77;100.00
51460;BME280;37534;39.772;2.718;2023-04-01T05:49:11;101487.19;;;14.89;100.00
51460;BME280;37534;39.772;2.718;2023-04-01T05:51:37;101481.31;;;14.83;100.00
51460;BME280;37534;39.772;2.718;2023-04-01T05:54:04;101498.75;;;15.07;100.00
51460;BME280;37534;39.772;2.718;2023-04-01T05:56:30;101494.84;;;15.20;100.00
51460;BME280;37534;39.772;2.718;2023-04-01T05:58:55;101510.63;;;15.15;100.00
51460;BME280;37534;39.772;2.718;2023-04-01T06:01:21;101501.16;;;15.13;100.00
51460;BME280;37534;39.772;2.718;2023-04-01T06:03:46;101505.94;;;15.25;100.00
51460;BME280;37534;39.772;2.718;2023-04-01T06:06:26;101496.16;;;15.33;100.00
51460;BME280;37534;39.772;2.718;2023-04-01T06:08:53;101504.56;;;15.40;100.00
51460;BME280;37534;39.772;2.718;2023-04-01T06:33:24;101526.59;;;16.54;100.00
51460;BME280;37534;39.772;2.718;2023-04-01T06:36:18;101529.47;;;16.70;99.10
51460;BME280;37534;39.772;2.718;2023-04-01T06:44:53;101549.38;;;17.17;97.56
51460;BME280;37534;39.772;2.718;2023-04-01T06:55:43;101544.34;;;18.16;92.22
51460;BME280;37534;39.772;2.718;2023-04-01T06:58:34;101549.94;;;18.85;87.86
51460;BME280;37534;39.772;2.718;2023-04-01T07:01:07;101554.28;;;19.57;82.20
51460;BME280;37534;39.772;2.718;2023-04-01T07:03:38;101556.81;;;20.43;75.33
51460;BME280;37534;39.772;2.718;2023-04-01T07:06:06;101544.50;;;20.77;72.12
51460;BME280;37534;39.772;2.718;2023-04-01T07:08:37;101540.50;;;21.01;69.99
51460;BME280;37534;39.772;2.718;2023-04-01T07:11:11;101547.16;;;21.23;67.17
51460;BME280;37534;39.772;2.718;2023-04-01T07:16:48;101555.56;;;21.74;63.00
51460;BME280;37534;39.772;2.718;2023-04-01T07:19:29;101551.28;;;21.88;60.17
51460;BME280;37534;39.772;2.718;2023-04-01T07:22:03;101544.28;;;21.58;58.82
51460;BME280;37534;39.772;2.718;2023-04-01T07:24:36;101549.44;;;21.29;62.19
51460;BME280;37534;39.772;2.718;2023-04-01T07:27:05;101557.13;;;21.02;67.14
51460;BME280;37534;39.772;2.718;2023-04-01T07:29:34;101554.16;;;20.92;66.49
51460;BME280;37534;39.772;2.718;2023-04-01T07:32:18;101555.41;;;21.47;62.88
51460;BME280;37534;39.772;2.718;2023-04-01T07:37:46;101557.72;;;23.76;46.94
51460;BME280;37534;39.772;2.718;2023-04-01T07:43:22;101568.03;;;23.79;45.66
51460;BME280;37534;39.772;2.718;2023-04-01T07:48:50;101575.69;;;22.47;48.01
51460;BME280;37534;39.772;2.718;2023-04-01T07:51:31;101582.38;;;22.38;49.80
51460;BME280;37534;39.772;2.718;2023-04-01T07:54:24;101587.81;;;22.91;45.44
51460;BME280;37534;39.772;2.718;2023-04-01T07:59:45;101584.50;;;22.61;42.02
51460;BME280;37534;39.772;2.718;2023-04-01T08:16:45;101605.25;;;25.83;35.54
51460;BME280;37534;39.772;2.718;2023-04-01T08:21:52;101607.50;;;27.44;34.44
51460;BME280;37534;39.772;2.718;2023-04-01T08:24:33;101610.38;;;28.66;32.75
51460;BME280;37534;39.772;2.718;2023-04-01T08:27:03;101618.66;;;28.92;31.50
51460;BME280;37534;39.772;2.718;2023-04-01T08:29:42;101622.28;;;29.60;31.49
51460;BME280;37534;39.772;2.718;2023-04-01T08:32:24;101613.34;;;29.51;30.99
51460;BME280;37534;39.772;2.718;2023-04-01T08:35:07;101621.84;;;28.36;31.05
51460;BME280;37534;39.772;2.718;2023-04-01T08:37:37;101631.78;;;27.17;32.99
51460;BME280;37534;39.772;2.718;2023-04-01T08:43:21;101634.34;;;24.75;35.06
51460;BME280;37534;39.772;2.718;2023-04-01T08:49:14;101630.19;;;25.56;34.22
51460;BME280;37534;39.772;2.718;2023-04-01T08:54:41;101633.97;;;26.23;34.25
51460;BME280;37534;39.772;2.718;2023-04-01T09:20:51;101671.97;;;26.33;36.74
51460;BME280;37534;39.772;2.718;2023-04-01T09:26:22;101674.84;;;28.16;33.27
51460;BME280;37534;39.772;2.718;2023-04-01T09:29:14;101671.09;;;27.98;33.32
51460;BME280;37534;39.772;2.718;2023-04-01T09:35:39;101672.72;;;27.57;34.39
51460;BME280;37534;39.772;2.718;2023-04-01T09:38:38;101686.31;;;27.20;34.14
51460;BME280;37534;39.772;2.718;2023-04-01T09:44:03;101686.41;;;28.46;33.11
51460;BME280;37534;39.772;2.718;2023-04-01T09:46:52;101693.00;;;28.73;32.25
51460;BME280;37534;39.772;2.718;2023-04-01T10:06:27;101683.94;;;23.93;38.94
51460;BME280;37534;39.772;2.718;2023-04-01T10:28:37;101643.44;;;26.03;35.03
51460;BME280;37534;39.772;2.718;2023-04-01T10:34:10;101631.94;;;27.90;32.12
51460;BME280;37534;39.772;2.718;2023-04-01T10:36:58;101632.41;;;29.17;30.12
51460;BME280;37534;39.772;2.718;2023-04-01T10:42:38;101625.50;;;29.83;29.70
51460;BME280;37534;39.772;2.718;2023-04-01T10:45:25;101625.91;;;29.98;28.86
51460;BME280;37534;39.772;2.718;2023-04-01T10:53:41;101615.31;;;29.49;30.08
51460;BME280;37534;39.772;2.718;2023-04-01T10:56:36;101607.63;;;30.12;29.42
51460;BME280;37534;39.772;2.718;2023-04-01T11:28:23;101583.69;;;31.48;27.86
51460;BME280;37534;39.772;2.718;2023-04-01T11:31:17;101574.13;;;31.37;28.39
51460;BME280;37534;39.772;2.718;2023-04-01T11:35:12;101568.97;;;30.64;28.65
51460;BME280;37534;39.772;2.718;2023-04-01T11:37:29;101564.72;;;31.25;26.77
51460;BME280;37534;39.772;2.718;2023-04-01T11:42:49;101553.13;;;31.52;27.84
51460;BME280;37534;39.772;2.718;2023-04-01T11:56:13;101558.00;;;32.34;27.10
51460;BME280;37534;39.772;2.718;2023-04-01T12:11:34;101511.16;;;32.97;24.90
51460;BME280;37534;39.772;2.718;2023-04-01T12:53:37;101481.44;;;32.92;27.63
51460;BME280;37534;39.772;2.718;2023-04-01T12:59:23;101471.94;;;31.97;29.69
51460;BME280;37534;39.772;2.718;2023-04-01T13:01:57;101457.28;;;32.01;29.24
51460;BME280;37534;39.772;2.718;2023-04-01T13:15:27;101466.94;;;30.99;29.02
51460;BME280;37534;39.772;2.718;2023-04-01T13:18:26;101437.00;;;32.58;27.65
51460;BME280;37534;39.772;2.718;2023-04-01T13:21:12;101442.22;;;32.84;27.13
51460;BME280;37534;39.772;2.718;2023-04-01T13:23:54;101439.84;;;32.56;26.94
51460;BME280;37534;39.772;2.718;2023-04-01T13:29:09;101436.81;;;33.01;26.38
51460;BME280;37534;39.772;2.718;2023-04-01T13:32:18;101431.34;;;32.77;26.44
51460;BME280;37534;39.772;2.718;2023-04-01T13:41:22;101438.66;;;32.26;25.46
51460;BME280;37534;39.772;2.718;2023-04-01T13:43:42;101447.38;;;32.45;25.33
51460;BME280;37534;39.772;2.718;2023-04-01T13:46:30;101434.31;;;32.17;24.18
51460;BME280;37534;39.772;2.718;2023-04-01T13:57:23;101418.44;;;29.50;28.08
51460;BME280;37534;39.772;2.718;2023-04-01T14:08:36;101375.94;;;30.32;26.58
51460;BME280;37534;39.772;2.718;2023-04-01T14:11:17;101382.25;;;31.19;26.04
51460;BME280;37534;39.772;2.718;2023-04-01T14:25:06;101375.72;;;31.48;24.56
51460;BME280;37534;39.772;2.718;2023-04-01T14:28:09;101373.19;;;31.04;24.21
51460;BME280;37534;39.772;2.718;2023-04-01T14:47:43;101342.66;;;30.98;22.98
51460;BME280;37534;39.772;2.718;2023-04-01T14:50:17;101335.66;;;31.23;21.52
51460;BME280;37534;39.772;2.718;2023-04-01T14:53:11;101330.66;;;30.42;21.61
51460;BME280;37534;39.772;2.718;2023-04-01T14:58:12;101335.94;;;29.05;22.38
51460;BME280;37534;39.772;2.718;2023-04-01T15:03:40;101320.50;;;29.73;22.86
51460;BME280;37534;39.772;2.718;2023-04-01T15:12:01;101316.19;;;29.27;22.11
51460;BME280;37534;39.772;2.718;2023-04-01T15:41:14;101263.41;;;27.30;25.64
51460;BME280;37534;39.772;2.718;2023-04-01T15:43:45;101270.75;;;27.17;25.80
51460;BME280;37534;39.772;2.718;2023-04-01T15:49:03;101245.66;;;26.38;26.70
51460;BME280;37534;39.772;2.718;2023-04-01T15:57:38;101226.41;;;26.26;27.18
51460;BME280;37534;39.772;2.718;2023-04-01T16:02:49;101212.78;;;25.45;27.01
51460;BME280;37534;39.772;2.718;2023-04-01T16:19:22;101164.84;;;24.27;27.86
51460;BME280;37534;39.772;2.718;2023-04-01T16:24:38;101139.81;;;23.86;28.39
51460;BME280;37534;39.772;2.718;2023-04-01T16:27:27;101157.44;;;23.85;27.59
51460;BME280;37534;39.772;2.718;2023-04-01T16:30:03;101155.78;;;23.71;27.33
51460;BME280;37534;39.772;2.718;2023-04-01T16:33:47;101141.50;;;23.27;28.40
51460;BME280;37534;39.772;2.718;2023-04-01T16:38:56;101137.59;;;23.20;28.99
51460;BME280;37534;39.772;2.718;2023-04-01T16:41:32;101124.00;;;22.89;29.00
51460;BME280;37534;39.772;2.718;2023-04-01T16:44:23;101139.47;;;22.94;29.69
51460;BME280;37534;39.772;2.718;2023-04-01T16:46:52;101134.97;;;22.83;29.74
51460;BME280;37534;39.772;2.718;2023-04-01T16:49:52;101126.69;;;22.64;30.26
51460;BME280;37534;39.772;2.718;2023-04-01T16:55:03;101149.22;;;22.29;31.87
51460;BME280;37534;39.772;2.718;2023-04-01T16:58:05;101131.00;;;22.00;32.09
51460;BME280;37534;39.772;2.718;2023-04-01T17:00:40;101124.38;;;21.82;32.54
51460;BME280;37534;39.772;2.718;2023-04-01T17:08:51;101144.00;;;21.49;32.93
51460;BME280;37534;39.772;2.718;2023-04-01T17:11:27;101130.88;;;21.22;32.80
51460;BME280;37534;39.772;2.718;2023-04-01T17:17:00;101137.69;;;20.83;32.60
51460;BME280;37534;39.772;2.718;2023-04-01T17:25:46;101121.97;;;20.25;34.80
51460;BME280;37534;39.772;2.718;2023-04-01T17:31:06;101128.47;;;20.04;35.72
51460;BME280;37534;39.772;2.718;2023-04-01T17:36:31;101125.63;;;19.92;36.52
51460;BME280;37534;39.772;2.718;2023-04-01T17:39:23;101119.94;;;19.70;36.90
51460;BME280;37534;39.772;2.718;2023-04-01T17:44:59;101124.06;;;19.44;37.78
51460;BME280;37534;39.772;2.718;2023-04-01T17:50:55;101132.69;;;19.30;38.72
51460;BME280;37534;39.772;2.718;2023-04-01T17:53:41;101132.34;;;19.04;39.19
51460;BME280;37534;39.772;2.718;2023-04-01T17:56:55;101135.22;;;18.84;40.04
51460;BME280;37534;39.772;2.718;2023-04-01T17:59:19;101133.41;;;18.51;41.39
51460;BME280;37534;39.772;2.718;2023-04-01T18:02:37;101144.22;;;18.45;41.12
51460;BME280;37534;39.772;2.718;2023-04-01T18:10:51;101143.81;;;18.35;41.96
51460;BME280;37534;39.772;2.718;2023-04-01T18:16:30;101154.59;;;18.11;42.89
51460;BME280;37534;39.772;2.718;2023-04-01T18:22:08;101149.38;;;17.94;43.48
51460;BME280;37534;39.772;2.718;2023-04-01T18:24:45;101153.78;;;17.93;44.10
51460;BME280;37534;39.772;2.718;2023-04-01T18:27:30;101166.81;;;17.93;44.73
51460;BME280;37534;39.772;2.718;2023-04-01T18:33:00;101167.09;;;17.70;45.61
51460;BME280;37534;39.772;2.718;2023-04-01T18:38:15;101162.09;;;17.46;46.33
51460;BME280;37534;39.772;2.718;2023-04-01T18:40:48;101166.38;;;17.29;47.76
51460;BME280;37534;39.772;2.718;2023-04-01T18:46:21;101166.94;;;17.17;50.88
51460;BME280;37534;39.772;2.718;2023-04-01T19:00:13;101163.00;;;16.69;57.12
51460;BME280;37534;39.772;2.718;2023-04-01T19:02:50;101157.94;;;16.66;58.39
51460;BME280;37534;39.772;2.718;2023-04-01T19:05:24;101159.47;;;16.51;58.97
51460;BME280;37534;39.772;2.718;2023-04-01T19:07:54;101164.84;;;16.46;60.85
51460;BME280;37534;39.772;2.718;2023-04-01T19:13:25;101169.03;;;16.50;61.40
51460;BME280;37534;39.772;2.718;2023-04-01T19:21:35;101148.00;;;15.93;65.34
51460;BME280;37534;39.772;2.718;2023-04-01T19:26:45;101144.28;;;15.78;66.44
51460;BME280;37534;39.772;2.718;2023-04-01T19:34:43;101143.66;;;16.35;56.52
51460;BME280;37534;39.772;2.718;2023-04-01T19:37:33;101139.75;;;16.64;54.95
51460;BME280;37534;39.772;2.718;2023-04-01T19:51:12;101151.16;;;16.62;59.47
51460;BME280;37534;39.772;2.718;2023-04-01T19:54:15;101149.91;;;16.70;59.49
51460;BME280;37534;39.772;2.718;2023-04-01T20:05:10;101149.25;;;16.86;57.04
51460;BME280;37534;39.772;2.718;2023-04-01T20:07:51;101148.66;;;16.79;56.75
51460;BME280;37534;39.772;2.718;2023-04-01T20:10:25;101143.19;;;16.85;57.98
51460;BME280;37534;39.772;2.718;2023-04-01T20:16:15;101112.28;;;16.57;60.15
51460;BME280;37534;39.772;2.718;2023-04-01T20:18:52;101116.78;;;16.53;61.01
51460;BME280;37534;39.772;2.718;2023-04-01T20:23:56;101107.91;;;16.39;61.09
51460;BME280;37534;39.772;2.718;2023-04-01T20:26:33;101087.50;;;16.48;60.38
51460;BME280;37534;39.772;2.718;2023-04-01T20:37:55;101039.91;;;17.02;58.63
51460;BME280;37534;39.772;2.718;2023-04-01T20:40:51;101039.91;;;17.02;60.02
51460;BME280;37534;39.772;2.718;2023-04-01T20:43:52;101065.69;;;17.08;59.66
51460;BME280;37534;39.772;2.718;2023-04-01T20:46:28;101070.91;;;17.08;60.10
51460;BME280;37534;39.772;2.718;2023-04-01T20:51:45;101087.69;;;17.02;62.67
51460;BME280;37534;39.772;2.718;2023-04-01T21:08:25;101082.22;;;16.89;65.32
51460;BME280;37534;39.772;2.718;2023-04-01T21:14:01;101090.03;;;16.89;67.27
51460;BME280;37534;39.772;2.718;2023-04-01T21:19:22;101119.41;;;16.93;69.45
51460;BME280;37534;39.772;2.718;2023-04-01T21:38:16;101208.28;;;16.25;83.12
51460;BME280;37534;39.772;2.718;2023-04-01T21:52:05;101397.22;;;14.86;100.00
51460;BME280;37534;39.772;2.718;2023-04-01T21:57:21;101414.53;;;14.01;100.00
51460;BME280;37534;39.772;2.718;2023-04-01T22:05:11;101449.25;;;13.33;100.00
51460;BME280;37534;39.772;2.718;2023-04-01T22:11:19;101489.63;;;13.41;100.00
51460;BME280;37534;39.772;2.718;2023-04-01T22:14:07;101470.84;;;13.31;100.00
51460;BME280;37534;39.772;2.718;2023-04-01T22:16:41;101468.53;;;13.19;100.00
51460;BME280;37534;39.772;2.718;2023-04-01T22:22:04;101440.88;;;13.20;100.00
51460;BME280;37534;39.772;2.718;2023-04-01T22:27:06;101443.75;;;13.07;100.00
51460;BME280;37534;39.772;2.718;2023-04-01T22:32:22;101405.06;;;13.01;100.00
51460;BME280;37534;39.772;2.718;2023-04-01T22:34:57;101394.22;;;12.87;100.00
51460;BME280;37534;39.772;2.718;2023-04-01T22:37:37;101397.38;;;12.98;100.00
51460;BME280;37534;39.772;2.718;2023-04-01T22:43:05;101347.28;;;12.99;100.00
51460;BME280;37534;39.772;2.718;2023-04-01T22:48:26;101367.22;;;12.96;100.00
51460;BME280;37534;39.772;2.718;2023-04-01T22:51:07;101367.16;;;12.99;100.00
51460;BME280;37534;39.772;2.718;2023-04-01T22:56:36;101363.13;;;12.87;100.00
51460;BME280;37534;39.772;2.718;2023-04-01T23:01:43;101383.91;;;12.84;100.00
51460;BME280;37534;39.772;2.718;2023-04-01T23:04:15;101381.16;;;12.54;100.00
51460;BME280;37534;39.772;2.718;2023-04-01T23:06:48;101362.19;;;12.55;100.00
51460;BME280;37534;39.772;2.718;2023-04-01T23:09:33;101338.94;;;12.52;100.00
51460;BME280;37534;39.772;2.718;2023-04-01T23:12:02;101330.13;;;12.61;100.00
51460;BME280;37534;39.772;2.718;2023-04-01T23:14:35;101294.13;;;12.50;100.00
51460;BME280;37534;39.772;2.718;2023-04-01T23:17:20;101306.78;;;12.62;100.00
51460;BME280;37534;39.772;2.718;2023-04-01T23:30:58;101270.78;;;12.53;100.00
51460;BME280;37534;39.772;2.718;2023-04-01T23:33:28;101300.34;;;12.43;100.00